sensor_id;sensor_type;location;lat;lon;timestamp;pressure;altitude;pressure_sealevel;temperature;humidity
46015;BME280;36844;51.898;-0.874;2022-10-30T00:00:45;100245.16;;;19.27;
46015;BME280;36844;51.898;-0.874;2022-10-30T00:03:11;100249.03;;;19.26;
46015;BME280;36844;51.898;-0.874;2022-10-30T00:05:39;100232.06;;;19.26;
46015;BME280;36844;51.898;-0.874;2022-10-30T00:08:04;100222.44;;;19.25;
46015;BME280;36844;51.898;-0.874;2022-10-30T00:10:29;100212.41;;;19.25;
46015;BME280;36844;51.898;-0.874;2022-10-30T00:12:54;100217.44;;;19.23;
46015;BME280;36844;51.898;-0.874;2022-10-30T00:15:19;100227.06;;;19.24;
46015;BME280;36844;51.898;-0.874;2022-10-30T00:17:45;100229.44;;;19.22;
46015;BME280;36844;51.898;-0.874;2022-10-30T00:20:10;100235.56;;;19.23;
46015;BME280;36844;51.898;-0.874;2022-10-30T00:22:35;100224.41;;;19.21;
46015;BME280;36844;51.898;-0.874;2022-10-30T00:25:01;100235.22;;;19.21;
46015;BME280;36844;51.898;-0.874;2022-10-30T00:27:26;100231.78;;;19.20;
46015;BME280;36844;51.898;-0.874;2022-10-30T00:29:51;100231.78;;;19.20;
46015;BME280;36844;51.898;-0.874;2022-10-30T00:32:17;100226.00;;;19.18;
46015;BME280;36844;51.898;-0.874;2022-10-30T00:34:42;100234.09;;;19.18;
46015;BME280;36844;51.898;-0.874;2022-10-30T00:37:07;100220.63;;;19.18;
46015;BME280;36844;51.898;-0.874;2022-10-30T00:39:32;100231.41;;;19.18;
46015;BME280;36844;51.898;-0.874;2022-10-30T00:41:58;100227.16;;;19.17;
46015;BME280;36844;51.898;-0.874;2022-10-30T00:47:26;100226.06;;;19.15;
46015;BME280;36844;51.898;-0.874;2022-10-30T00:49:59;100229.53;;;19.15;
46015;BME280;36844;51.898;-0.874;2022-10-30T00:52:25;100204.84;;;19.13;
46015;BME280;36844;51.898;-0.874;2022-10-30T00:54:52;100220.66;;;19.15;
46015;BME280;36844;51.898;-0.874;2022-10-30T00:57:18;100226.44;;;19.13;
46015;BME280;36844;51.898;-0.874;2022-10-30T00:59:43;100229.16;;;19.13;
46015;BME280;36844;51.898;-0.874;2022-10-30T01:02:09;100229.59;;;19.12;
46015;BME280;36844;51.898;-0.874;2022-10-30T01:04:35;100223.41;;;19.11;
46015;BME280;36844;51.898;-0.874;2022-10-30T01:07:04;100221.50;;;19.12;
46015;BME280;36844;51.898;-0.874;2022-10-30T01:09:30;100218.03;;;19.11;
46015;BME280;36844;51.898;-0.874;2022-10-30T01:11:56;100221.88;;;19.10;
46015;BME280;36844;51.898;-0.874;2022-10-30T01:14:22;100214.56;;;19.11;
46015;BME280;36844;51.898;-0.874;2022-10-30T01:19:47;100219.63;;;19.09;
46015;BME280;36844;51.898;-0.874;2022-10-30T01:39:45;100205.78;;;19.03;
46015;BME280;36844;51.898;-0.874;2022-10-30T01:42:36;100204.63;;;19.04;
46015;BME280;36844;51.898;-0.874;2022-10-30T01:44:55;100203.88;;;19.04;
46015;BME280;36844;51.898;-0.874;2022-10-30T01:47:45;100205.03;;;19.03;
46015;BME280;36844;51.898;-0.874;2022-10-30T01:57:35;100212.78;;;19.01;
46015;BME280;36844;51.898;-0.874;2022-10-30T02:00:09;100211.25;;;19.00;
46015;BME280;36844;51.898;-0.874;2022-10-30T02:02:35;100212.03;;;19.00;
46015;BME280;36844;51.898;-0.874;2022-10-30T02:05:00;100209.31;;;19.00;
46015;BME280;36844;51.898;-0.874;2022-10-30T02:07:26;100211.66;;;18.98;
46015;BME280;36844;51.898;-0.874;2022-10-30T02:09:51;100212.41;;;18.99;
46015;BME280;36844;51.898;-0.874;2022-10-30T02:12:18;100209.69;;;18.99;
46015;BME280;36844;51.898;-0.874;2022-10-30T02:14:44;100208.97;;;18.98;
46015;BME280;36844;51.898;-0.874;2022-10-30T02:17:10;100206.25;;;18.98;
46015;BME280;36844;51.898;-0.874;2022-10-30T02:19:35;100202.78;;;18.98;
46015;BME280;36844;51.898;-0.874;2022-10-30T02:22:01;100202.06;;;18.97;
46015;BME280;36844;51.898;-0.874;2022-10-30T02:24:27;100192.41;;;18.96;
46015;BME280;36844;51.898;-0.874;2022-10-30T02:26:52;100195.09;;;18.96;
46015;BME280;36844;51.898;-0.874;2022-10-30T02:29:17;100197.81;;;18.96;
46015;BME280;36844;51.898;-0.874;2022-10-30T02:31:44;100194.34;;;18.96;
46015;BME280;36844;51.898;-0.874;2022-10-30T02:34:10;100197.03;;;18.96;
46015;BME280;36844;51.898;-0.874;2022-10-30T02:36:35;100185.47;;;18.95;
46015;BME280;36844;51.898;-0.874;2022-10-30T02:39:00;100181.25;;;18.94;
46015;BME280;36844;51.898;-0.874;2022-10-30T02:41:25;100178.56;;;18.94;
46015;BME280;36844;51.898;-0.874;2022-10-30T02:43:51;100167.75;;;18.94;
46015;BME280;36844;51.898;-0.874;2022-10-30T02:46:17;100167.00;;;18.94;
46015;BME280;36844;51.898;-0.874;2022-10-30T02:48:43;100163.56;;;18.93;
46015;BME280;36844;51.898;-0.874;2022-10-30T02:51:08;100167.41;;;18.92;
46015;BME280;36844;51.898;-0.874;2022-10-30T02:53:33;100165.47;;;18.93;
46015;BME280;36844;51.898;-0.874;2022-10-30T02:56:06;100169.34;;;18.92;
46015;BME280;36844;51.898;-0.874;2022-10-30T02:58:31;100172.81;;;18.92;
46015;BME280;36844;51.898;-0.874;2022-10-30T03:00:57;100159.72;;;18.91;
46015;BME280;36844;51.898;-0.874;2022-10-30T03:03:22;100159.72;;;18.91;
46015;BME280;36844;51.898;-0.874;2022-10-30T03:05:47;100156.25;;;18.90;
46015;BME280;36844;51.898;-0.874;2022-10-30T03:08:12;100155.47;;;18.90;
46015;BME280;36844;51.898;-0.874;2022-10-30T03:10:38;100156.66;;;18.89;
46015;BME280;36844;51.898;-0.874;2022-10-30T03:13:03;100159.38;;;18.89;
46015;BME280;36844;51.898;-0.874;2022-10-30T03:15:28;100159.38;;;18.89;
46015;BME280;36844;51.898;-0.874;2022-10-30T03:17:53;100161.28;;;18.88;
46015;BME280;36844;51.898;-0.874;2022-10-30T03:20:19;100172.84;;;18.89;
46015;BME280;36844;51.898;-0.874;2022-10-30T03:22:45;100175.97;;;18.87;
46015;BME280;36844;51.898;-0.874;2022-10-30T03:25:11;100176.75;;;18.88;
46015;BME280;36844;51.898;-0.874;2022-10-30T03:27:36;100172.50;;;18.87;
46015;BME280;36844;51.898;-0.874;2022-10-30T03:30:01;100168.63;;;18.88;
46015;BME280;36844;51.898;-0.874;2022-10-30T03:32:26;100167.88;;;18.87;
46015;BME280;36844;51.898;-0.874;2022-10-30T03:34:52;100168.28;;;18.86;
46015;BME280;36844;51.898;-0.874;2022-10-30T03:37:17;100167.50;;;18.85;
46015;BME280;36844;51.898;-0.874;2022-10-30T03:39:42;100165.59;;;18.86;
46015;BME280;36844;51.898;-0.874;2022-10-30T03:42:07;100175.59;;;18.85;
46015;BME280;36844;51.898;-0.874;2022-10-30T03:44:32;100176.78;;;18.84;
46015;BME280;36844;51.898;-0.874;2022-10-30T03:46:58;100174.09;;;18.84;
46015;BME280;36844;51.898;-0.874;2022-10-30T03:49:23;100166.00;;;18.84;
46015;BME280;36844;51.898;-0.874;2022-10-30T03:51:48;100159.06;;;18.83;
46015;BME280;36844;51.898;-0.874;2022-10-30T03:54:13;100176.78;;;18.84;
46015;BME280;36844;51.898;-0.874;2022-10-30T03:56:38;100180.66;;;18.83;
46015;BME280;36844;51.898;-0.874;2022-10-30T03:59:04;100184.50;;;18.82;
46015;BME280;36844;51.898;-0.874;2022-10-30T04:01:29;100181.81;;;18.82;
46015;BME280;36844;51.898;-0.874;2022-10-30T04:03:54;100183.75;;;18.82;
46015;BME280;36844;51.898;-0.874;2022-10-30T04:06:19;100191.09;;;18.81;
46015;BME280;36844;51.898;-0.874;2022-10-30T04:08:45;100193.03;;;18.81;
46015;BME280;36844;51.898;-0.874;2022-10-30T04:11:10;100203.06;;;18.80;
46015;BME280;36844;51.898;-0.874;2022-10-30T04:13:35;100205.75;;;18.80;
46015;BME280;36844;51.898;-0.874;2022-10-30T04:16:00;100203.06;;;18.80;
46015;BME280;36844;51.898;-0.874;2022-10-30T04:18:25;100202.28;;;18.80;
46015;BME280;36844;51.898;-0.874;2022-10-30T04:20:51;100182.63;;;18.79;
46015;BME280;36844;51.898;-0.874;2022-10-30T04:23:17;100173.03;;;18.78;
46015;BME280;36844;51.898;-0.874;2022-10-30T04:25:42;100170.31;;;18.78;
46015;BME280;36844;51.898;-0.874;2022-10-30T04:28:08;100149.91;;;18.77;
46015;BME280;36844;51.898;-0.874;2022-10-30T04:30:33;100140.63;;;18.78;
46015;BME280;36844;51.898;-0.874;2022-10-30T04:33:01;100139.88;;;18.77;
46015;BME280;36844;51.898;-0.874;2022-10-30T04:35:28;100132.19;;;18.76;
46015;BME280;36844;51.898;-0.874;2022-10-30T04:40:19;100134.88;;;18.76;
46015;BME280;36844;51.898;-0.874;2022-10-30T04:42:47;100133.72;;;18.77;
46015;BME280;36844;51.898;-0.874;2022-10-30T04:45:13;100136.03;;;18.75;
46015;BME280;36844;51.898;-0.874;2022-10-30T04:47:38;100149.19;;;18.73;
46015;BME280;36844;51.898;-0.874;2022-10-30T04:50:03;100138.75;;;18.75;
46015;BME280;36844;51.898;-0.874;2022-10-30T04:52:29;100137.97;;;18.74;
46015;BME280;36844;51.898;-0.874;2022-10-30T04:54:54;100137.63;;;18.72;
46015;BME280;36844;51.898;-0.874;2022-10-30T04:57:19;100132.25;;;18.72;
46015;BME280;36844;51.898;-0.874;2022-10-30T04:59:44;100138.41;;;18.73;
46015;BME280;36844;51.898;-0.874;2022-10-30T05:02:10;100128.00;;;18.71;
46015;BME280;36844;51.898;-0.874;2022-10-30T05:04:35;100122.59;;;18.71;
46015;BME280;36844;51.898;-0.874;2022-10-30T05:07:00;100135.31;;;18.71;
46015;BME280;36844;51.898;-0.874;2022-10-30T05:09:27;100137.25;;;18.70;
46015;BME280;36844;51.898;-0.874;2022-10-30T05:11:52;100144.19;;;18.71;
46015;BME280;36844;51.898;-0.874;2022-10-30T05:14:18;100128.44;;;18.70;
46015;BME280;36844;51.898;-0.874;2022-10-30T05:16:43;100141.94;;;18.70;
46015;BME280;36844;51.898;-0.874;2022-10-30T05:19:08;100133.84;;;18.70;
46015;BME280;36844;51.898;-0.874;2022-10-30T05:21:33;100128.44;;;18.70;
46015;BME280;36844;51.898;-0.874;2022-10-30T05:23:59;100131.53;;;18.68;
46015;BME280;36844;51.898;-0.874;2022-10-30T05:26:24;100127.69;;;18.69;
46015;BME280;36844;51.898;-0.874;2022-10-30T05:28:49;100123.44;;;18.68;
46015;BME280;36844;51.898;-0.874;2022-10-30T05:31:14;100124.19;;;18.69;
46015;BME280;36844;51.898;-0.874;2022-10-30T05:33:39;100116.13;;;18.69;
46015;BME280;36844;51.898;-0.874;2022-10-30T05:36:05;100121.13;;;18.67;
46015;BME280;36844;51.898;-0.874;2022-10-30T05:38:30;100129.22;;;18.67;
46015;BME280;36844;51.898;-0.874;2022-10-30T05:40:55;100139.28;;;18.66;
46015;BME280;36844;51.898;-0.874;2022-10-30T05:43:20;100140.00;;;18.67;
46015;BME280;36844;51.898;-0.874;2022-10-30T05:45:47;100149.31;;;18.66;
46015;BME280;36844;51.898;-0.874;2022-10-30T05:48:12;100145.06;;;18.65;
46015;BME280;36844;51.898;-0.874;2022-10-30T05:50:38;100162.03;;;18.65;
46015;BME280;36844;51.898;-0.874;2022-10-30T05:53:03;100170.88;;;18.66;
46015;BME280;36844;51.898;-0.874;2022-10-30T05:55:29;100172.03;;;18.65;
46015;BME280;36844;51.898;-0.874;2022-10-30T05:58:01;100180.91;;;18.65;
46015;BME280;36844;51.898;-0.874;2022-10-30T06:00:29;100179.38;;;18.64;
46015;BME280;36844;51.898;-0.874;2022-10-30T06:02:58;100177.44;;;18.65;
46015;BME280;36844;51.898;-0.874;2022-10-30T06:05:24;100179.38;;;18.64;
46015;BME280;36844;51.898;-0.874;2022-10-30T06:07:49;100180.53;;;18.63;
46015;BME280;36844;51.898;-0.874;2022-10-30T06:10:18;100171.69;;;18.63;
46015;BME280;36844;51.898;-0.874;2022-10-30T06:12:43;100177.84;;;18.63;
46015;BME280;36844;51.898;-0.874;2022-10-30T06:15:15;100181.72;;;18.62;
46015;BME280;36844;51.898;-0.874;2022-10-30T06:17:40;100187.13;;;18.62;
46015;BME280;36844;51.898;-0.874;2022-10-30T06:20:06;100175.56;;;18.62;
46015;BME280;36844;51.898;-0.874;2022-10-30T06:22:31;100170.16;;;18.62;
46015;BME280;36844;51.898;-0.874;2022-10-30T06:24:56;100167.47;;;18.62;
46015;BME280;36844;51.898;-0.874;2022-10-30T06:27:21;100159.38;;;18.62;
46015;BME280;36844;51.898;-0.874;2022-10-30T06:29:47;100157.44;;;18.62;
46015;BME280;36844;51.898;-0.874;2022-10-30T06:32:13;100159.38;;;18.62;
46015;BME280;36844;51.898;-0.874;2022-10-30T06:34:38;100162.41;;;18.64;
46015;BME280;36844;51.898;-0.874;2022-10-30T06:37:03;100162.78;;;18.66;
46015;BME280;36844;51.898;-0.874;2022-10-30T06:39:28;100149.31;;;18.66;
46015;BME280;36844;51.898;-0.874;2022-10-30T06:41:53;100156.19;;;18.67;
46015;BME280;36844;51.898;-0.874;2022-10-30T06:44:19;100148.88;;;18.67;
46015;BME280;36844;51.898;-0.874;2022-10-30T06:46:44;100153.09;;;18.68;
46015;BME280;36844;51.898;-0.874;2022-10-30T06:49:09;100158.84;;;18.70;
46015;BME280;36844;51.898;-0.874;2022-10-30T06:51:34;100156.91;;;18.71;
46015;BME280;36844;51.898;-0.874;2022-10-30T06:54:00;100168.09;;;18.73;
46015;BME280;36844;51.898;-0.874;2022-10-30T06:56:25;100165.72;;;18.75;
46015;BME280;36844;51.898;-0.874;2022-10-30T06:58:50;100170.72;;;18.77;
46015;BME280;36844;51.898;-0.874;2022-10-30T07:01:15;100167.63;;;18.78;
46015;BME280;36844;51.898;-0.874;2022-10-30T07:03:41;100157.19;;;18.80;
46015;BME280;36844;51.898;-0.874;2022-10-30T07:06:06;100162.59;;;18.80;
46015;BME280;36844;51.898;-0.874;2022-10-30T07:08:32;100160.97;;;18.83;
46015;BME280;36844;51.898;-0.874;2022-10-30T07:10:57;100160.59;;;18.84;
46015;BME280;36844;51.898;-0.874;2022-10-30T07:13:22;100166.75;;;18.85;
46015;BME280;36844;51.898;-0.874;2022-10-30T07:15:48;100172.50;;;18.87;
46015;BME280;36844;51.898;-0.874;2022-10-30T07:18:13;100182.88;;;18.88;
46015;BME280;36844;51.898;-0.874;2022-10-30T07:20:38;100187.13;;;18.89;
46015;BME280;36844;51.898;-0.874;2022-10-30T07:23:03;100192.88;;;18.91;
46015;BME280;36844;51.898;-0.874;2022-10-30T07:25:28;100199.78;;;18.92;
46015;BME280;36844;51.898;-0.874;2022-10-30T07:27:54;100183.19;;;18.94;
46015;BME280;36844;51.898;-0.874;2022-10-30T07:30:21;100182.03;;;18.95;
46015;BME280;36844;51.898;-0.874;2022-10-30T07:32:55;100177.00;;;18.97;
46015;BME280;36844;51.898;-0.874;2022-10-30T07:35:20;100183.16;;;18.97;
46015;BME280;36844;51.898;-0.874;2022-10-30T07:37:45;100175.81;;;18.98;
46015;BME280;36844;51.898;-0.874;2022-10-30T07:40:10;100161.13;;;18.99;
46015;BME280;36844;51.898;-0.874;2022-10-30T07:42:36;100160.72;;;19.00;
46015;BME280;36844;51.898;-0.874;2022-10-30T07:45:01;100151.47;;;19.01;
46015;BME280;36844;51.898;-0.874;2022-10-30T07:47:26;100155.66;;;19.02;
46015;BME280;36844;51.898;-0.874;2022-10-30T07:49:51;100144.13;;;19.02;
46015;BME280;36844;51.898;-0.874;2022-10-30T07:52:16;100157.22;;;19.03;
46015;BME280;36844;51.898;-0.874;2022-10-30T07:54:42;100166.06;;;19.04;
46015;BME280;36844;51.898;-0.874;2022-10-30T07:57:07;100162.22;;;19.05;
46015;BME280;36844;51.898;-0.874;2022-10-30T07:59:32;100159.53;;;19.05;
46015;BME280;36844;51.898;-0.874;2022-10-30T08:01:57;100157.91;;;19.07;
46015;BME280;36844;51.898;-0.874;2022-10-30T08:04:24;100154.06;;;19.08;
46015;BME280;36844;51.898;-0.874;2022-10-30T08:06:49;100156.75;;;19.08;
46015;BME280;36844;51.898;-0.874;2022-10-30T08:09:15;100151.69;;;19.10;
46015;BME280;36844;51.898;-0.874;2022-10-30T08:11:40;100155.16;;;19.11;
46015;BME280;36844;51.898;-0.874;2022-10-30T08:14:05;100155.16;;;19.11;
46015;BME280;36844;51.898;-0.874;2022-10-30T08:16:30;100172.47;;;19.13;
46015;BME280;36844;51.898;-0.874;2022-10-30T08:18:56;100167.84;;;19.14;
46015;BME280;36844;51.898;-0.874;2022-10-30T08:21:21;100160.84;;;19.16;
46015;BME280;36844;51.898;-0.874;2022-10-30T08:23:46;100154.28;;;19.17;
46015;BME280;36844;51.898;-0.874;2022-10-30T08:26:12;100146.94;;;19.18;
46015;BME280;36844;51.898;-0.874;2022-10-30T08:28:37;100143.84;;;19.19;
46015;BME280;36844;51.898;-0.874;2022-10-30T08:31:02;100157.69;;;19.21;
46015;BME280;36844;51.898;-0.874;2022-10-30T08:33:28;100155.75;;;19.22;
46015;BME280;36844;51.898;-0.874;2022-10-30T08:35:54;100154.97;;;19.21;
46015;BME280;36844;51.898;-0.874;2022-10-30T08:38:22;100156.13;;;19.24;
46015;BME280;36844;51.898;-0.874;2022-10-30T08:40:47;100154.91;;;19.25;
46015;BME280;36844;51.898;-0.874;2022-10-30T08:43:12;100153.00;;;19.25;
46015;BME280;36844;51.898;-0.874;2022-10-30T08:45:38;100147.59;;;19.25;
46015;BME280;36844;51.898;-0.874;2022-10-30T08:48:04;100153.34;;;19.27;
46015;BME280;36844;51.898;-0.874;2022-10-30T08:50:30;100150.66;;;19.27;
46015;BME280;36844;51.898;-0.874;2022-10-30T08:52:59;100154.13;;;19.28;
46015;BME280;36844;51.898;-0.874;2022-10-30T08:55:24;100156.41;;;19.29;
46015;BME280;36844;51.898;-0.874;2022-10-30T08:57:49;100149.81;;;19.30;
46015;BME280;36844;51.898;-0.874;2022-10-30T09:00:14;100148.66;;;19.31;
46015;BME280;36844;51.898;-0.874;2022-10-30T09:02:40;100156.00;;;19.31;
46015;BME280;36844;51.898;-0.874;2022-10-30T09:05:05;100162.94;;;19.32;
46015;BME280;36844;51.898;-0.874;2022-10-30T09:07:32;100171.78;;;19.32;
46015;BME280;36844;51.898;-0.874;2022-10-30T09:09:57;100149.75;;;19.34;
46015;BME280;36844;51.898;-0.874;2022-10-30T09:12:22;100132.78;;;19.33;
46015;BME280;36844;51.898;-0.874;2022-10-30T09:14:50;100135.88;;;19.35;
46015;BME280;36844;51.898;-0.874;2022-10-30T09:17:15;100158.22;;;19.36;
46015;BME280;36844;51.898;-0.874;2022-10-30T09:19:41;100145.47;;;19.36;
46015;BME280;36844;51.898;-0.874;2022-10-30T09:22:06;100148.91;;;19.37;
46015;BME280;36844;51.898;-0.874;2022-10-30T09:24:31;100141.59;;;19.37;
46015;BME280;36844;51.898;-0.874;2022-10-30T09:26:56;100160.50;;;19.37;
46015;BME280;36844;51.898;-0.874;2022-10-30T09:29:22;100171.69;;;19.39;
46015;BME280;36844;51.898;-0.874;2022-10-30T09:31:47;100172.41;;;19.40;
46015;BME280;36844;51.898;-0.874;2022-10-30T09:34:13;100177.81;;;19.40;
46015;BME280;36844;51.898;-0.874;2022-10-30T09:36:38;100171.22;;;19.41;
46015;BME280;36844;51.898;-0.874;2022-10-30T09:39:03;100169.31;;;19.41;
46015;BME280;36844;51.898;-0.874;2022-10-30T09:52:07;100173.88;;;19.44;
46015;BME280;36844;51.898;-0.874;2022-10-30T09:57:04;100170.41;;;19.44;
46015;BME280;36844;51.898;-0.874;2022-10-30T10:04:43;100166.59;;;19.41;
46015;BME280;36844;51.898;-0.874;2022-10-30T10:07:24;100164.31;;;19.40;
46015;BME280;36844;51.898;-0.874;2022-10-30T10:09:51;100163.56;;;19.39;
46015;BME280;36844;51.898;-0.874;2022-10-30T10:12:29;100166.28;;;19.39;
46015;BME280;36844;51.898;-0.874;2022-10-30T10:14:57;100150.47;;;19.38;
46015;BME280;36844;51.898;-0.874;2022-10-30T10:17:26;100153.59;;;19.36;
46015;BME280;36844;51.898;-0.874;2022-10-30T10:19:56;100150.09;;;19.36;
46015;BME280;36844;51.898;-0.874;2022-10-30T10:22:26;100165.97;;;19.34;
46015;BME280;36844;51.898;-0.874;2022-10-30T10:24:54;100171.34;;;19.34;
46015;BME280;36844;51.898;-0.874;2022-10-30T10:38:09;100146.75;;;19.28;
46015;BME280;36844;51.898;-0.874;2022-10-30T10:45:46;100153.00;;;19.25;
46015;BME280;36844;51.898;-0.874;2022-10-30T10:48:16;100155.34;;;19.23;
46015;BME280;36844;51.898;-0.874;2022-10-30T10:50:51;100149.94;;;19.23;
46015;BME280;36844;51.898;-0.874;2022-10-30T10:53:23;100172.72;;;19.22;
46015;BME280;36844;51.898;-0.874;2022-10-30T10:55:51;100164.28;;;19.20;
46015;BME280;36844;51.898;-0.874;2022-10-30T10:58:25;100150.78;;;19.20;
46015;BME280;36844;51.898;-0.874;2022-10-30T11:00:51;100154.66;;;19.19;
46015;BME280;36844;51.898;-0.874;2022-10-30T11:03:19;100170.84;;;19.19;
46015;BME280;36844;51.898;-0.874;2022-10-30T11:05:47;100163.91;;;19.18;
46015;BME280;36844;51.898;-0.874;2022-10-30T11:08:16;100169.31;;;19.18;
46015;BME280;36844;51.898;-0.874;2022-10-30T11:10:43;100168.97;;;19.16;
46015;BME280;36844;51.898;-0.874;2022-10-30T11:13:11;100177.81;;;19.17;
46015;BME280;36844;51.898;-0.874;2022-10-30T11:15:39;100166.69;;;19.15;
46015;BME280;36844;51.898;-0.874;2022-10-30T11:18:09;100160.84;;;19.16;
46015;BME280;36844;51.898;-0.874;2022-10-30T11:20:43;100158.56;;;19.15;
46015;BME280;36844;51.898;-0.874;2022-10-30T11:25:55;100163.59;;;19.13;
46015;BME280;36844;51.898;-0.874;2022-10-30T11:33:42;100151.31;;;19.12;
46015;BME280;36844;51.898;-0.874;2022-10-30T11:36:07;100149.75;;;19.11;
46015;BME280;36844;51.898;-0.874;2022-10-30T11:38:33;100149.38;;;19.12;
46015;BME280;36844;51.898;-0.874;2022-10-30T11:40:58;100161.34;;;19.11;
46015;BME280;36844;51.898;-0.874;2022-10-30T11:43:25;100163.25;;;19.11;
46015;BME280;36844;51.898;-0.874;2022-10-30T11:45:51;100157.88;;;19.11;
46015;BME280;36844;51.898;-0.874;2022-10-30T11:50:46;100152.47;;;19.11;
46015;BME280;36844;51.898;-0.874;2022-10-30T11:53:14;100151.69;;;19.10;
46015;BME280;36844;51.898;-0.874;2022-10-30T11:55:47;100151.69;;;19.10;
46015;BME280;36844;51.898;-0.874;2022-10-30T11:58:20;100157.88;;;19.11;
46015;BME280;36844;51.898;-0.874;2022-10-30T12:00:47;100157.09;;;19.10;
46015;BME280;36844;51.898;-0.874;2022-10-30T12:03:27;100166.72;;;19.11;
46015;BME280;36844;51.898;-0.874;2022-10-30T12:05:52;100157.88;;;19.11;
46015;BME280;36844;51.898;-0.874;2022-10-30T12:08:30;100147.84;;;19.11;
46015;BME280;36844;51.898;-0.874;2022-10-30T12:10:57;100156.69;;;19.12;
46015;BME280;36844;51.898;-0.874;2022-10-30T12:13:23;100159.78;;;19.10;
46015;BME280;36844;51.898;-0.874;2022-10-30T12:16:02;100162.88;;;19.12;
46015;BME280;36844;51.898;-0.874;2022-10-30T12:18:27;100158.63;;;19.11;
46015;BME280;36844;51.898;-0.874;2022-10-30T12:20:54;100150.53;;;19.11;
46015;BME280;36844;51.898;-0.874;2022-10-30T12:23:21;100148.59;;;19.12;
46015;BME280;36844;51.898;-0.874;2022-10-30T12:25:50;100156.69;;;19.12;
46015;BME280;36844;51.898;-0.874;2022-10-30T12:28:17;100152.47;;;19.11;
46015;BME280;36844;51.898;-0.874;2022-10-30T12:30:53;100147.84;;;19.11;
46015;BME280;36844;51.898;-0.874;2022-10-30T12:33:25;100140.91;;;19.10;
46015;BME280;36844;51.898;-0.874;2022-10-30T12:35:58;100137.03;;;19.11;
46015;BME280;36844;51.898;-0.874;2022-10-30T12:38:28;100142.44;;;19.11;
46015;BME280;36844;51.898;-0.874;2022-10-30T12:41:04;100139.75;;;19.11;
46015;BME280;36844;51.898;-0.874;2022-10-30T12:43:35;100143.22;;;19.12;
46015;BME280;36844;51.898;-0.874;2022-10-30T12:46:13;100148.59;;;19.12;
46015;BME280;36844;51.898;-0.874;2022-10-30T12:48:42;100134.34;;;19.11;
46015;BME280;36844;51.898;-0.874;2022-10-30T12:51:12;100142.44;;;19.11;
46015;BME280;36844;51.898;-0.874;2022-10-30T12:53:55;100142.44;;;19.11;
46015;BME280;36844;51.898;-0.874;2022-10-30T12:56:42;100147.06;;;19.11;
46015;BME280;36844;51.898;-0.874;2022-10-30T12:59:12;100141.66;;;19.11;
46015;BME280;36844;51.898;-0.874;2022-10-30T13:01:53;100137.03;;;19.11;
46015;BME280;36844;51.898;-0.874;2022-10-30T13:04:53;100145.13;;;19.11;
46015;BME280;36844;51.898;-0.874;2022-10-30T13:07:17;100133.19;;;19.12;
46015;BME280;36844;51.898;-0.874;2022-10-30T13:12:30;100125.09;;;19.12;
46015;BME280;36844;51.898;-0.874;2022-10-30T13:14:57;100129.28;;;19.13;
46015;BME280;36844;51.898;-0.874;2022-10-30T13:17:23;100122.72;;;19.14;
46015;BME280;36844;51.898;-0.874;2022-10-30T13:19:48;100127.72;;;19.16;
46015;BME280;36844;51.898;-0.874;2022-10-30T13:22:19;100140.00;;;19.17;
46015;BME280;36844;51.898;-0.874;2022-10-30T13:29:42;100130.34;;;19.19;
46015;BME280;36844;51.898;-0.874;2022-10-30T13:39:45;100146.47;;;19.23;
46015;BME280;36844;51.898;-0.874;2022-10-30T13:42:16;100154.16;;;19.24;
46015;BME280;36844;51.898;-0.874;2022-10-30T13:50:34;100162.63;;;19.26;
46015;BME280;36844;51.898;-0.874;2022-10-30T13:53:01;100156.06;;;19.27;
46015;BME280;36844;51.898;-0.874;2022-10-30T13:55:28;100171.84;;;19.29;
46015;BME280;36844;51.898;-0.874;2022-10-30T14:00:21;100169.91;;;19.29;
46015;BME280;36844;51.898;-0.874;2022-10-30T14:02:53;100166.00;;;19.30;
46015;BME280;36844;51.898;-0.874;2022-10-30T14:05:27;100155.22;;;19.30;
46015;BME280;36844;51.898;-0.874;2022-10-30T14:13:02;100148.66;;;19.31;
46015;BME280;36844;51.898;-0.874;2022-10-30T14:23:13;100139.00;;;19.30;
46015;BME280;36844;51.898;-0.874;2022-10-30T14:25:39;100139.78;;;19.31;
46015;BME280;36844;51.898;-0.874;2022-10-30T14:28:05;100139.00;;;19.30;
46015;BME280;36844;51.898;-0.874;2022-10-30T14:30:37;100147.13;;;19.30;
46015;BME280;36844;51.898;-0.874;2022-10-30T14:33:08;100139.00;;;19.30;
46015;BME280;36844;51.898;-0.874;2022-10-30T14:36:14;100139.78;;;19.31;
46015;BME280;36844;51.898;-0.874;2022-10-30T14:38:38;100144.41;;;19.30;
46015;BME280;36844;51.898;-0.874;2022-10-30T14:41:05;100155.22;;;19.30;
46015;BME280;36844;51.898;-0.874;2022-10-30T14:43:35;100159.84;;;19.30;
46015;BME280;36844;51.898;-0.874;2022-10-30T14:46:09;100152.50;;;19.30;
46015;BME280;36844;51.898;-0.874;2022-10-30T14:51:17;100153.72;;;19.29;
46015;BME280;36844;51.898;-0.874;2022-10-30T14:54:00;100153.72;;;19.29;
46015;BME280;36844;51.898;-0.874;2022-10-30T14:56:45;100159.09;;;19.29;
46015;BME280;36844;51.898;-0.874;2022-10-30T15:04:07;100169.91;;;19.29;
46015;BME280;36844;51.898;-0.874;2022-10-30T15:14:05;100169.13;;;19.29;
46015;BME280;36844;51.898;-0.874;2022-10-30T15:16:34;100164.16;;;19.27;
46015;BME280;36844;51.898;-0.874;2022-10-30T15:19:04;100161.44;;;19.27;
46015;BME280;36844;51.898;-0.874;2022-10-30T15:21:32;100168.03;;;19.26;
46015;BME280;36844;51.898;-0.874;2022-10-30T15:23:59;100172.66;;;19.26;
46015;BME280;36844;51.898;-0.874;2022-10-30T15:27:10;100169.19;;;19.25;
46015;BME280;36844;51.898;-0.874;2022-10-30T15:29:34;100176.53;;;19.25;
46015;BME280;36844;51.898;-0.874;2022-10-30T15:32:01;100183.84;;;19.24;
46015;BME280;36844;51.898;-0.874;2022-10-30T15:34:27;100183.84;;;19.24;
46015;BME280;36844;51.898;-0.874;2022-10-30T15:36:53;100191.22;;;19.24;
46015;BME280;36844;51.898;-0.874;2022-10-30T15:39:18;100178.88;;;19.23;
46015;BME280;36844;51.898;-0.874;2022-10-30T15:44:10;100188.16;;;19.22;